createdAt,value
2022-09-06T00:00:39.651Z,3.13
2022-09-06T00:01:43.025Z,3.72
2022-09-06T00:02:47.463Z,3.33
2022-09-06T00:03:50.277Z,3.78
2022-09-06T00:04:53.298Z,3.22
2022-09-06T00:05:56.654Z,3.60
2022-09-06T00:06:59.628Z,3.22
2022-09-06T00:08:02.206Z,3.13
2022-09-06T00:09:05.457Z,3.08
2022-09-06T00:10:08.267Z,3.20
2022-09-06T00:11:11.549Z,3.20
2022-09-06T00:12:13.539Z,3.00
2022-09-06T00:13:16.573Z,3.15
2022-09-06T00:14:18.581Z,3.20
2022-09-06T00:15:22.350Z,3.00
2022-09-06T00:16:29.699Z,3.75
2022-09-06T00:17:33.945Z,2.85
2022-09-06T00:18:36.393Z,3.28
2022-09-06T00:19:39.450Z,3.47
2022-09-06T00:20:41.513Z,3.90
2022-09-06T00:21:45.905Z,3.28
2022-09-06T00:22:47.942Z,3.38
2022-09-06T00:23:51.602Z,2.90
2022-09-06T00:24:53.614Z,3.08
2022-09-06T00:26:04.527Z,2.90
2022-09-06T00:27:07.995Z,3.25
2022-09-06T00:28:11.000Z,4.03
2022-09-06T00:29:13.062Z,3.88
2022-09-06T00:30:16.222Z,3.38
2022-09-06T00:31:20.582Z,2.80
2022-09-06T00:32:23.778Z,3.15
2022-09-06T00:33:25.812Z,3.60
2022-09-06T00:34:29.622Z,3.85
2022-09-06T00:35:31.611Z,3.58
2022-09-06T00:36:34.641Z,2.75
2022-09-06T00:37:38.077Z,3.38
2022-09-06T00:38:42.106Z,2.83
2022-09-06T00:39:44.762Z,3.05
2022-09-06T00:40:47.818Z,3.28
2022-09-06T00:41:49.853Z,3.83
2022-09-06T00:42:52.939Z,3.50
2022-09-06T00:43:55.205Z,3.15
2022-09-06T00:44:58.527Z,3.30
2022-09-06T00:46:01.699Z,3.65
2022-09-06T00:47:05.629Z,3.40
2022-09-06T00:48:07.942Z,3.63
2022-09-06T00:49:14.586Z,3.75
2022-09-06T00:50:19.546Z,3.75
2022-09-06T00:51:25.654Z,2.95
2022-09-06T00:52:29.628Z,3.97
2022-09-06T00:53:33.141Z,3.65
2022-09-06T00:54:36.541Z,3.90
2022-09-06T00:55:41.574Z,3.85
2022-09-06T00:56:45.218Z,3.88
2022-09-06T00:57:50.995Z,4.38
2022-09-06T00:58:53.081Z,3.80
2022-09-06T00:59:57.388Z,4.03
2022-09-06T01:00:59.421Z,3.40
2022-09-06T01:02:02.763Z,3.38
2022-09-06T01:03:05.925Z,3.40
2022-09-06T01:04:09.443Z,3.42
2022-09-06T01:05:12.199Z,3.95
2022-09-06T01:06:25.417Z,3.53
2022-09-06T01:07:49.449Z,3.78
2022-09-06T01:09:06.544Z,4.40
2022-09-06T01:10:27.341Z,3.38
2022-09-06T01:11:42.586Z,3.35
2022-09-06T01:12:51.205Z,3.25
2022-09-06T01:14:01.349Z,3.35
2022-09-06T01:15:12.934Z,3.30
2022-09-06T01:16:24.039Z,3.92
2022-09-06T01:17:36.131Z,3.25
2022-09-06T01:19:03.297Z,3.70
2022-09-06T01:20:39.142Z,3.58
2022-09-06T01:21:50.307Z,4.28
2022-09-06T01:23:14.029Z,3.78
2022-09-06T01:24:46.842Z,3.95
2022-09-06T01:26:02.775Z,4.15
2022-09-06T01:27:53.817Z,3.55
2022-09-06T01:28:56.350Z,3.78
2022-09-06T01:30:05.024Z,3.70
2022-09-06T01:31:23.824Z,3.65
2022-09-06T01:32:30.787Z,4.10
2022-09-06T01:33:39.943Z,3.97
2022-09-06T01:34:47.726Z,3.85
2022-09-06T01:35:54.237Z,3.97
2022-09-06T01:37:09.860Z,3.50
2022-09-06T01:38:15.006Z,4.00
2022-09-06T01:39:23.779Z,3.67
2022-09-06T01:40:27.749Z,5.30
2022-09-06T01:41:30.608Z,3.97
2022-09-06T01:42:36.641Z,3.95
2022-09-06T01:43:45.546Z,3.67
2022-09-06T01:44:52.296Z,4.50
2022-09-06T01:46:02.936Z,4.00
2022-09-06T01:47:14.704Z,4.47
2022-09-06T01:48:25.405Z,4.03
2022-09-06T01:49:38.805Z,3.88
2022-09-06T01:50:56.165Z,3.92
2022-09-06T01:52:08.738Z,3.83
2022-09-06T01:53:25.181Z,4.00
2022-09-06T01:54:38.850Z,4.90
2022-09-06T01:55:50.232Z,4.03
2022-09-06T01:57:06.729Z,3.95
2022-09-06T01:58:37.427Z,4.15
2022-09-06T01:59:51.979Z,3.50
2022-09-06T02:01:01.403Z,4.32
2022-09-06T02:02:10.160Z,3.95
2022-09-06T02:03:25.438Z,4.20
2022-09-06T02:04:31.018Z,4.10
2022-09-06T02:05:38.591Z,3.70
2022-09-06T02:06:45.179Z,5.03
2022-09-06T02:07:49.532Z,4.50
2022-09-06T02:08:55.313Z,4.00
2022-09-06T02:10:09.116Z,4.30
2022-09-06T02:11:14.397Z,3.63
2022-09-06T02:12:19.867Z,4.00
2022-09-06T02:13:24.477Z,4.53
2022-09-06T02:14:32.306Z,4.10
2022-09-06T02:15:39.440Z,4.05
2022-09-06T02:16:45.367Z,3.80
2022-09-06T02:17:55.121Z,3.92
2022-09-06T02:19:01.011Z,4.03
2022-09-06T02:20:08.125Z,4.03
2022-09-06T02:21:15.421Z,4.10
2022-09-06T02:22:22.357Z,4.15
2022-09-06T02:23:28.706Z,4.45
2022-09-06T02:24:34.637Z,4.50
2022-09-06T02:25:40.388Z,4.30
2022-09-06T02:26:46.031Z,4.70
2022-09-06T02:27:48.261Z,4.35
2022-09-06T02:28:51.622Z,4.50
2022-09-06T02:29:53.663Z,4.50
2022-09-06T02:31:02.056Z,4.20
2022-09-06T02:32:09.910Z,4.40
2022-09-06T02:33:17.988Z,4.00
2022-09-06T02:34:20.906Z,4.38
2022-09-06T02:35:24.213Z,3.72
2022-09-06T02:36:26.445Z,4.38
2022-09-06T02:37:29.511Z,4.60
2022-09-06T02:38:34.154Z,4.25
2022-09-06T02:39:37.278Z,4.40
2022-09-06T02:40:40.086Z,3.75
2022-09-06T02:41:44.685Z,4.30
2022-09-06T02:42:46.881Z,4.50
2022-09-06T02:43:50.313Z,3.83
2022-09-06T02:44:52.364Z,4.35
2022-09-06T02:45:55.434Z,4.47
2022-09-06T02:46:59.123Z,3.70
2022-09-06T02:48:02.245Z,4.13
2022-09-06T02:49:04.285Z,3.90
2022-09-06T02:50:08.344Z,4.10
2022-09-06T02:51:10.831Z,4.15
2022-09-06T02:52:14.006Z,4.38
2022-09-06T02:53:16.517Z,3.85
2022-09-06T02:54:19.551Z,4.10
2022-09-06T02:55:21.574Z,4.00
2022-09-06T02:56:24.921Z,3.60
2022-09-06T02:57:26.950Z,4.72
2022-09-06T02:58:30.079Z,4.13
2022-09-06T02:59:32.533Z,4.15
2022-09-06T03:00:35.747Z,4.00
2022-09-06T03:01:38.482Z,4.57
2022-09-06T03:02:42.996Z,4.53
2022-09-06T03:03:45.572Z,4.50
2022-09-06T03:04:48.657Z,4.10
2022-09-06T03:05:52.439Z,4.65
2022-09-06T03:06:56.308Z,4.53
2022-09-06T03:07:58.659Z,4.05
2022-09-06T03:09:01.841Z,3.70
2022-09-06T03:10:04.507Z,4.50
2022-09-06T03:11:07.506Z,4.50
2022-09-06T03:12:09.522Z,4.70
2022-09-06T03:13:13.183Z,3.55
2022-09-06T03:14:16.992Z,3.95
2022-09-06T03:15:20.261Z,3.28
2022-09-06T03:16:22.645Z,4.20
2022-09-06T03:17:25.985Z,4.20
2022-09-06T03:18:30.932Z,4.80
2022-09-06T03:19:33.987Z,4.07
2022-09-06T03:20:37.214Z,4.75
2022-09-06T03:21:40.429Z,4.32
2022-09-06T03:22:42.529Z,4.07
2022-09-06T03:23:45.830Z,4.57
2022-09-06T03:24:49.249Z,4.30
2022-09-06T03:25:52.542Z,3.72
2022-09-06T03:26:54.606Z,3.97
2022-09-06T03:27:57.589Z,4.13
2022-09-06T03:28:59.588Z,4.22
2022-09-06T03:30:02.604Z,4.82
2022-09-06T03:31:05.031Z,4.38
2022-09-06T03:32:08.085Z,4.00
2022-09-06T03:33:10.117Z,4.35
2022-09-06T03:34:14.493Z,4.30
2022-09-06T03:35:16.612Z,4.30
2022-09-06T03:36:19.611Z,3.90
2022-09-06T03:37:21.655Z,5.38
2022-09-06T03:38:25.703Z,4.20
2022-09-06T03:39:27.818Z,4.70
2022-09-06T03:40:30.833Z,4.53
2022-09-06T03:41:33.226Z,3.70
2022-09-06T03:42:36.234Z,4.20
2022-09-06T03:43:38.268Z,3.42
2022-09-06T03:44:41.277Z,4.20
2022-09-06T03:45:46.826Z,3.80
2022-09-06T03:46:51.215Z,4.65
2022-09-06T03:47:53.226Z,4.45
2022-09-06T03:48:56.510Z,4.72
2022-09-06T03:49:59.898Z,4.40
2022-09-06T03:51:02.987Z,4.70
2022-09-06T03:52:05.289Z,4.53
2022-09-06T03:53:08.305Z,4.30
2022-09-06T03:54:10.400Z,5.05
2022-09-06T03:55:13.404Z,5.80
2022-09-06T03:56:15.417Z,4.60
2022-09-06T03:57:18.422Z,4.43
2022-09-06T03:58:22.327Z,5.22
2022-09-06T03:59:25.436Z,4.47
2022-09-06T04:00:27.468Z,5.15
2022-09-06T04:01:30.700Z,3.67
2022-09-06T04:02:32.863Z,4.95
2022-09-06T04:03:36.777Z,4.68
2022-09-06T04:04:38.815Z,4.65
2022-09-06T04:05:46.374Z,4.13
2022-09-06T04:06:48.366Z,4.43
2022-09-06T04:07:51.349Z,4.43
2022-09-06T04:08:53.341Z,4.80
2022-09-06T04:09:56.353Z,4.18
2022-09-06T04:10:59.358Z,3.90
2022-09-06T04:12:02.418Z,3.70
2022-09-06T04:13:04.481Z,4.60
2022-09-06T04:14:07.526Z,4.72
2022-09-06T04:15:10.267Z,4.78
2022-09-06T04:16:13.328Z,4.95
2022-09-06T04:17:15.380Z,5.25
2022-09-06T04:18:18.479Z,5.22
2022-09-06T04:19:20.533Z,4.50
2022-09-06T04:20:23.524Z,4.40
2022-09-06T04:21:26.949Z,3.90
2022-09-06T04:22:29.929Z,4.00
2022-09-06T04:23:34.339Z,4.68
2022-09-06T04:24:40.741Z,4.35
2022-09-06T04:25:46.033Z,5.18
2022-09-06T04:26:49.113Z,4.00
2022-09-06T04:27:51.150Z,4.30
2022-09-06T04:28:54.322Z,5.00
2022-09-06T04:29:56.660Z,4.65
2022-09-06T04:31:04.549Z,4.70
2022-09-06T04:32:08.189Z,4.55
2022-09-06T04:33:10.597Z,5.50
2022-09-06T04:34:13.614Z,5.50
2022-09-06T04:35:15.747Z,5.40
2022-09-06T04:36:18.836Z,4.93
2022-09-06T04:37:22.221Z,5.10
2022-09-06T04:38:25.339Z,4.78
2022-09-06T04:39:27.460Z,4.50
2022-09-06T04:40:30.550Z,4.50
2022-09-06T04:41:33.041Z,5.40
2022-09-06T04:42:36.274Z,4.70
2022-09-06T04:43:38.376Z,5.28
2022-09-06T04:44:41.430Z,4.72
2022-09-06T04:45:44.349Z,4.53
2022-09-06T04:46:47.378Z,4.75
2022-09-06T04:47:51.515Z,4.90
2022-09-06T04:48:55.917Z,4.47
2022-09-06T04:49:57.965Z,4.60
2022-09-06T04:51:00.950Z,4.35
2022-09-06T04:52:03.309Z,4.75
2022-09-06T04:53:07.916Z,5.03
2022-09-06T04:54:09.967Z,4.50
2022-09-06T04:55:12.969Z,5.20
2022-09-06T04:56:17.458Z,4.55
2022-09-06T04:57:20.454Z,5.90
2022-09-06T04:58:22.478Z,4.57
2022-09-06T04:59:25.511Z,4.80
2022-09-06T05:00:28.038Z,4.80
2022-09-06T05:01:31.113Z,4.65
2022-09-06T05:02:33.300Z,5.00
2022-09-06T05:03:38.240Z,5.00
2022-09-06T05:04:40.250Z,4.78
2022-09-06T05:05:43.238Z,5.00
2022-09-06T05:06:45.513Z,4.53
2022-09-06T05:07:48.518Z,4.50
2022-09-06T05:08:51.949Z,4.50
2022-09-06T05:09:55.075Z,4.85
2022-09-06T05:10:57.079Z,4.90
2022-09-06T05:12:00.420Z,5.03
2022-09-06T05:13:02.421Z,4.55
2022-09-06T05:14:05.467Z,5.40
2022-09-06T05:15:08.710Z,4.53
2022-09-06T05:16:12.080Z,4.70
2022-09-06T05:17:14.768Z,5.10
2022-09-06T05:18:17.743Z,5.07
2022-09-06T05:19:19.761Z,5.22
2022-09-06T05:20:22.758Z,7.40
2022-09-06T05:21:24.816Z,5.15
2022-09-06T05:22:27.827Z,4.55
2022-09-06T05:23:29.893Z,4.90
2022-09-06T05:24:34.287Z,4.68
2022-09-06T05:25:36.326Z,5.80
2022-09-06T05:26:39.419Z,4.97
2022-09-06T05:27:41.430Z,4.93
2022-09-06T05:28:44.466Z,4.18
2022-09-06T05:29:46.518Z,5.75
2022-09-06T05:30:49.533Z,5.03
2022-09-06T05:31:51.638Z,5.20
2022-09-06T05:32:54.680Z,5.53
2022-09-06T05:33:57.678Z,5.70
2022-09-06T05:35:00.677Z,6.05
2022-09-06T05:36:03.439Z,5.55
2022-09-06T05:37:06.496Z,5.57
2022-09-06T05:38:08.521Z,4.57
2022-09-06T05:39:11.582Z,5.20
2022-09-06T05:40:15.098Z,5.65
2022-09-06T05:41:18.497Z,5.25
2022-09-06T05:42:20.549Z,5.22
2022-09-06T05:43:23.840Z,5.43
2022-09-06T05:44:26.984Z,6.03
2022-09-06T05:45:29.280Z,5.53
2022-09-06T05:46:32.358Z,6.60
2022-09-06T05:47:35.508Z,5.60
2022-09-06T05:48:38.845Z,5.57
2022-09-06T05:49:41.238Z,6.30
2022-09-06T05:50:44.238Z,5.10
2022-09-06T05:51:50.790Z,5.30
2022-09-06T05:52:54.876Z,5.53
2022-09-06T05:53:56.924Z,5.10
2022-09-06T05:54:59.933Z,6.32
2022-09-06T05:56:04.150Z,6.68
2022-09-06T05:57:07.195Z,6.15
2022-09-06T05:58:09.234Z,5.70
2022-09-06T05:59:12.438Z,6.72
2022-09-06T06:00:15.046Z,6.03
2022-09-06T06:01:19.846Z,6.18
2022-09-06T06:02:22.490Z,6.30
2022-09-06T06:03:25.492Z,7.22
2022-09-06T06:04:27.538Z,6.13
2022-09-06T06:05:30.554Z,6.53
2022-09-06T06:06:34.089Z,6.50
2022-09-06T06:07:37.377Z,5.90
2022-09-06T06:08:39.776Z,6.72
2022-09-06T06:09:43.068Z,6.40
2022-09-06T06:10:45.055Z,5.65
2022-09-06T06:11:49.441Z,6.70
2022-09-06T06:12:51.457Z,5.85
2022-09-06T06:13:54.857Z,5.80
2022-09-06T06:14:56.922Z,6.40
2022-09-06T06:15:59.910Z,6.32
2022-09-06T06:17:03.051Z,6.25
2022-09-06T06:18:05.189Z,5.38
2022-09-06T06:19:08.269Z,5.85
2022-09-06T06:20:10.857Z,6.60
2022-09-06T06:21:15.873Z,6.00
2022-09-06T06:22:17.887Z,5.97
2022-09-06T06:23:20.861Z,6.30
2022-09-06T06:24:24.101Z,6.25
2022-09-06T06:25:26.297Z,6.78
2022-09-06T06:26:31.198Z,6.60
2022-09-06T06:27:36.754Z,6.85
2022-09-06T06:28:40.793Z,6.68
2022-09-06T06:29:43.821Z,6.93
2022-09-06T06:30:45.877Z,6.80
2022-09-06T06:31:48.992Z,6.97
2022-09-06T06:32:51.110Z,8.02
2022-09-06T06:33:54.181Z,7.07
2022-09-06T06:34:57.165Z,7.00
2022-09-06T06:36:00.774Z,7.45
2022-09-06T06:37:03.786Z,6.70
2022-09-06T06:38:05.810Z,7.38
2022-09-06T06:39:09.653Z,7.32
2022-09-06T06:40:11.927Z,6.07
2022-09-06T06:41:17.063Z,6.60
2022-09-06T06:42:20.317Z,6.78
2022-09-06T06:43:23.742Z,7.22
2022-09-06T06:44:28.404Z,7.00
2022-09-06T06:45:31.471Z,7.20
2022-09-06T06:46:36.610Z,7.80
2022-09-06T06:47:38.764Z,7.95
2022-09-06T06:48:43.366Z,7.43
2022-09-06T06:49:45.450Z,7.75
2022-09-06T06:50:48.494Z,7.03
2022-09-06T06:51:51.470Z,8.10
2022-09-06T06:52:54.200Z,7.20
2022-09-06T06:53:57.915Z,7.65
2022-09-06T06:54:59.925Z,7.75
2022-09-06T06:56:03.576Z,7.65
2022-09-06T06:57:09.332Z,8.27
2022-09-06T06:58:11.355Z,7.82
2022-09-06T06:59:15.998Z,8.73
2022-09-06T07:00:18.275Z,8.85
2022-09-06T07:01:23.197Z,9.13
2022-09-06T07:02:26.365Z,9.57
2022-09-06T07:03:28.402Z,9.23
2022-09-06T07:04:31.397Z,9.32
2022-09-06T07:08:20.908Z,8.65
2022-09-06T07:09:23.256Z,9.13
2022-09-06T07:10:33.915Z,8.15
2022-09-06T07:11:36.561Z,8.85
2022-09-06T07:12:39.601Z,8.50
2022-09-06T07:15:22.325Z,8.52
2022-09-06T07:16:25.811Z,9.30
2022-09-06T07:17:28.454Z,8.73
2022-09-06T07:18:31.520Z,9.13
2022-09-06T07:22:20.317Z,8.88
2022-09-06T07:24:48.191Z,9.80
2022-09-06T07:25:50.181Z,8.60
2022-09-06T07:28:16.282Z,8.82
2022-09-06T07:29:19.326Z,9.40
2022-09-06T07:30:22.750Z,9.85
2022-09-06T07:32:49.926Z,9.43
2022-09-06T07:33:55.642Z,8.82
2022-09-06T07:34:58.854Z,9.93
2022-09-06T07:36:03.875Z,8.10
2022-09-06T07:37:05.973Z,8.90
2022-09-06T07:38:08.970Z,8.77
2022-09-06T07:39:11.955Z,8.45
2022-09-06T07:40:14.162Z,7.78
2022-09-06T07:41:18.860Z,8.80
2022-09-06T07:42:21.880Z,8.30
2022-09-06T07:43:25.401Z,9.40
2022-09-06T07:44:28.827Z,9.00
2022-09-06T07:45:35.621Z,7.55
2022-09-06T07:46:38.803Z,8.25
2022-09-06T07:48:59.395Z,8.43
2022-09-06T07:51:24.507Z,9.40
2022-09-06T07:53:57.999Z,9.10
2022-09-06T07:55:09.990Z,8.85
2022-09-06T07:56:13.949Z,9.23
2022-09-06T07:57:16.013Z,9.80
2022-09-06T07:58:19.050Z,9.45
2022-09-06T07:59:22.058Z,9.30
2022-09-06T08:00:24.064Z,8.07
2022-09-06T08:01:30.974Z,8.45
2022-09-06T08:02:33.212Z,8.68
2022-09-06T08:03:36.247Z,8.77
2022-09-06T08:04:41.026Z,8.80
2022-09-06T08:09:51.069Z,9.07
2022-09-06T08:10:53.231Z,9.15
2022-09-06T08:11:56.222Z,8.43
2022-09-06T08:12:58.241Z,9.02
2022-09-06T08:14:02.692Z,8.80
2022-09-06T08:15:05.337Z,9.05
2022-09-06T08:16:10.752Z,8.20
2022-09-06T08:17:15.240Z,9.90
2022-09-06T08:18:17.230Z,8.98
2022-09-06T08:19:22.775Z,8.60
2022-09-06T08:20:25.772Z,7.28
2022-09-06T08:21:30.028Z,9.50
2022-09-06T08:22:34.213Z,8.32
2022-09-06T08:23:36.229Z,8.68
2022-09-06T08:24:39.232Z,9.38
2022-09-06T08:25:41.258Z,7.70
2022-09-06T08:26:44.350Z,7.72
2022-09-06T08:27:47.330Z,8.30
2022-09-06T08:28:54.040Z,8.05
2022-09-06T08:29:57.041Z,9.38
2022-09-06T08:31:06.374Z,8.52
2022-09-06T08:32:09.564Z,8.13
2022-09-06T08:33:13.055Z,8.57
2022-09-06T08:34:16.394Z,8.63
2022-09-06T08:35:18.402Z,9.00
2022-09-06T08:36:22.093Z,9.93
2022-09-06T08:37:25.378Z,8.63
2022-09-06T08:38:28.674Z,8.68
2022-09-06T08:39:31.749Z,8.68
2022-09-06T08:40:33.893Z,8.80
2022-09-06T08:41:51.908Z,9.07
2022-09-06T08:42:54.965Z,8.73
2022-09-06T08:45:25.000Z,8.85
2022-09-06T08:46:32.526Z,8.45
2022-09-06T08:47:35.980Z,8.70
2022-09-06T08:48:39.994Z,8.77
2022-09-06T08:49:45.238Z,8.85
2022-09-06T08:50:55.906Z,8.73
2022-09-06T08:52:54.447Z,9.15
2022-09-06T08:54:11.990Z,7.68
2022-09-06T08:55:27.540Z,7.78
2022-09-06T08:56:35.934Z,8.10
2022-09-06T08:57:54.080Z,7.47
2022-09-06T08:59:06.522Z,7.53
2022-09-06T09:00:11.653Z,8.48
2022-09-06T09:01:19.672Z,8.20
2022-09-06T09:02:22.637Z,7.97
2022-09-06T09:03:32.575Z,7.63
2022-09-06T09:04:38.905Z,8.00
2022-09-06T09:05:43.441Z,7.65
2022-09-06T09:06:52.197Z,8.02
2022-09-06T09:08:08.149Z,8.05
2022-09-06T09:09:15.318Z,7.43
2022-09-06T09:10:23.745Z,6.97
2022-09-06T09:11:26.640Z,7.10
2022-09-06T09:12:35.009Z,7.07
2022-09-06T09:13:51.035Z,6.65
2022-09-06T09:15:00.018Z,7.85
2022-09-06T09:16:03.495Z,6.90
2022-09-06T09:17:11.877Z,6.78
2022-09-06T09:18:18.639Z,8.77
2022-09-06T09:19:21.863Z,8.10
2022-09-06T09:20:26.236Z,8.07
2022-09-06T09:21:31.237Z,7.75
2022-09-06T09:22:35.746Z,7.57
2022-09-06T09:23:39.058Z,7.70
2022-09-06T09:24:41.342Z,8.15
2022-09-06T09:25:46.699Z,6.40
2022-09-06T09:26:53.867Z,7.75
2022-09-06T09:27:57.942Z,6.18
2022-09-06T09:29:09.474Z,6.57
2022-09-06T09:31:38.057Z,6.28
2022-09-06T09:32:42.350Z,6.78
2022-09-06T09:33:45.710Z,6.13
2022-09-06T09:34:47.786Z,7.65
2022-09-06T09:35:52.453Z,6.38
2022-09-06T09:38:43.568Z,5.85
2022-09-06T09:39:47.860Z,6.85
2022-09-06T09:40:52.120Z,5.90
2022-09-06T09:41:55.128Z,5.63
2022-09-06T09:43:14.745Z,6.32
2022-09-06T09:44:19.935Z,5.55
2022-09-06T09:45:25.918Z,6.50
2022-09-06T09:46:34.106Z,5.43
2022-09-06T09:47:37.673Z,6.50
2022-09-06T09:48:42.583Z,7.25
2022-09-06T09:49:44.551Z,6.30
2022-09-06T09:50:47.809Z,6.28
2022-09-06T09:52:11.195Z,5.85
2022-09-06T09:53:15.269Z,7.53
2022-09-06T09:54:32.722Z,6.95
2022-09-06T09:55:34.797Z,6.10
2022-09-06T09:56:46.491Z,5.70
2022-09-06T09:57:50.731Z,5.00
2022-09-06T09:58:55.895Z,4.40
2022-09-06T10:00:01.130Z,4.30
2022-09-06T10:01:17.734Z,4.63
2022-09-06T10:02:25.953Z,4.32
2022-09-06T10:03:30.438Z,4.28
2022-09-06T10:04:45.212Z,4.05
2022-09-06T10:06:02.252Z,4.00
2022-09-06T10:07:13.754Z,4.30
2022-09-06T10:08:25.826Z,4.13
2022-09-06T10:09:34.812Z,4.15
2022-09-06T10:10:40.949Z,3.80
2022-09-06T10:11:54.219Z,4.10
2022-09-06T10:13:09.310Z,4.07
2022-09-06T10:14:21.677Z,4.22
2022-09-06T10:15:35.151Z,4.70
2022-09-06T10:16:44.779Z,4.90
2022-09-06T10:17:51.183Z,3.58
2022-09-06T10:18:53.237Z,4.45
2022-09-06T10:19:56.331Z,5.32
2022-09-06T10:21:01.930Z,4.53
2022-09-06T10:22:28.015Z,4.57
2022-09-06T10:25:49.195Z,5.18
2022-09-06T10:26:53.795Z,4.22
2022-09-06T10:28:31.168Z,4.55
2022-09-06T10:29:40.763Z,4.75
2022-09-06T10:30:51.455Z,4.10
2022-09-06T10:32:06.490Z,3.70
2022-09-06T10:33:22.540Z,4.13
2022-09-06T10:34:58.426Z,4.00
2022-09-06T10:36:03.146Z,4.38
2022-09-06T10:37:17.585Z,4.93
2022-09-06T10:38:33.426Z,4.10
2022-09-06T10:39:49.354Z,4.25
2022-09-06T10:41:01.624Z,4.35
2022-09-06T10:42:14.916Z,4.05
2022-09-06T10:43:20.084Z,4.85
2022-09-06T10:44:35.972Z,5.20
2022-09-06T10:45:46.791Z,4.10
2022-09-06T10:46:55.505Z,4.20
2022-09-06T10:48:02.917Z,4.50
2022-09-06T10:49:10.205Z,4.25
2022-09-06T10:50:12.158Z,3.90
2022-09-06T10:51:23.017Z,4.35
2022-09-06T10:52:30.397Z,4.40
2022-09-06T10:53:44.593Z,4.22
2022-09-06T10:54:47.411Z,4.15
2022-09-06T10:56:01.401Z,4.00
2022-09-06T11:00:13.013Z,3.92
2022-09-06T11:01:26.327Z,4.20
2022-09-06T11:02:39.420Z,4.40
2022-09-06T11:04:04.149Z,3.65
2022-09-06T11:06:37.866Z,3.80
2022-09-06T11:09:13.670Z,3.97
2022-09-06T11:10:21.970Z,3.80
2022-09-06T11:11:35.438Z,3.85
2022-09-06T11:12:45.003Z,3.58
2022-09-06T11:13:47.415Z,3.10
2022-09-06T11:14:50.445Z,3.53
2022-09-06T11:16:08.775Z,3.00
2022-09-06T11:17:19.323Z,3.75
2022-09-06T11:18:29.082Z,3.25
2022-09-06T11:19:40.029Z,3.17
2022-09-06T11:20:47.943Z,3.88
2022-09-06T11:22:12.094Z,3.15
2022-09-06T11:23:49.119Z,3.60
2022-09-06T11:25:18.406Z,2.70
2022-09-06T11:26:35.411Z,3.25
2022-09-06T11:27:41.208Z,3.72
2022-09-06T11:28:48.664Z,2.70
2022-09-06T11:29:56.404Z,2.80
2022-09-06T11:30:59.782Z,3.30
2022-09-06T11:32:19.809Z,3.10
2022-09-06T11:33:27.668Z,2.88
2022-09-06T11:34:34.394Z,2.53
2022-09-06T11:35:37.212Z,2.90
2022-09-06T11:36:47.699Z,2.88
2022-09-06T11:38:00.770Z,2.70
2022-09-06T11:39:04.821Z,2.97
2022-09-06T11:41:29.734Z,4.10
2022-09-06T11:43:13.813Z,2.60
2022-09-06T11:44:54.974Z,2.85
2022-09-06T11:45:57.955Z,4.10
2022-09-06T11:47:01.149Z,3.70
2022-09-06T11:48:34.971Z,3.42
2022-09-06T11:49:41.755Z,3.35
2022-09-06T11:51:03.990Z,2.45
2022-09-06T11:52:59.797Z,2.85
2022-09-06T11:54:27.832Z,3.08
2022-09-06T11:55:39.011Z,2.70
2022-09-06T11:56:48.788Z,4.15
2022-09-06T11:57:56.344Z,3.97
2022-09-06T11:59:05.216Z,4.15
2022-09-06T12:00:21.884Z,4.88
2022-09-06T12:01:37.926Z,3.05
2022-09-06T12:02:42.241Z,3.22
2022-09-06T12:04:07.932Z,2.95
2022-09-06T12:05:18.034Z,3.65
2022-09-06T12:06:22.328Z,2.60
2022-09-06T12:07:24.778Z,2.50
2022-09-06T12:08:36.743Z,2.15
2022-09-06T12:09:42.590Z,2.72
2022-09-06T12:10:55.777Z,2.50
2022-09-06T12:11:59.610Z,2.80
2022-09-06T12:13:01.665Z,2.65
2022-09-06T12:14:07.203Z,2.63
2022-09-06T12:15:27.909Z,2.13
2022-09-06T12:17:07.154Z,2.53
2022-09-06T12:18:10.202Z,2.80
2022-09-06T12:19:44.565Z,2.30
2022-09-06T12:21:04.143Z,1.90
2022-09-06T12:23:04.357Z,2.63
2022-09-06T12:24:07.637Z,2.17
2022-09-06T12:25:18.337Z,2.80
2022-09-06T12:26:49.712Z,2.25
2022-09-06T12:27:57.930Z,2.10
2022-09-06T12:29:00.068Z,2.58
2022-09-06T12:30:06.185Z,2.20
2022-09-06T12:31:30.234Z,2.40
2022-09-06T12:32:37.188Z,2.50
2022-09-06T12:33:39.578Z,2.10
2022-09-06T12:34:46.364Z,2.63
2022-09-06T12:35:56.748Z,2.40
2022-09-06T12:37:03.557Z,2.10
2022-09-06T12:38:07.098Z,2.38
2022-09-06T12:39:12.018Z,1.80
2022-09-06T12:40:14.351Z,2.10
2022-09-06T12:41:17.453Z,2.22
2022-09-06T12:42:22.043Z,2.38
2022-09-06T12:43:24.602Z,2.28
2022-09-06T12:44:33.418Z,1.70
2022-09-06T12:45:35.504Z,1.90
2022-09-06T12:46:46.727Z,2.28
2022-09-06T12:47:50.636Z,1.88
2022-09-06T12:49:05.112Z,2.25
2022-09-06T12:50:17.078Z,2.00
2022-09-06T12:51:21.632Z,1.85
2022-09-06T12:52:24.619Z,2.50
2022-09-06T12:53:27.801Z,2.67
2022-09-06T12:54:30.725Z,2.20
2022-09-06T12:55:36.534Z,1.77
2022-09-06T12:56:38.529Z,2.10
2022-09-06T12:57:48.921Z,2.22
2022-09-06T12:58:51.110Z,2.00
2022-09-06T12:59:55.756Z,2.38
2022-09-06T13:01:04.081Z,2.35
2022-09-06T13:02:16.261Z,1.98
2022-09-06T13:03:29.146Z,2.60
2022-09-06T13:04:39.869Z,2.05
2022-09-06T13:05:47.139Z,2.42
2022-09-06T13:06:50.388Z,1.80
2022-09-06T13:07:55.698Z,1.60
2022-09-06T13:08:59.496Z,2.47
2022-09-06T13:10:03.193Z,1.88
2022-09-06T13:11:11.007Z,1.90
2022-09-06T13:12:22.529Z,2.35
2022-09-06T13:13:27.738Z,1.77
2022-09-06T13:14:32.450Z,2.20
2022-09-06T13:15:35.517Z,1.90
2022-09-06T13:16:42.111Z,2.00
2022-09-06T13:17:46.797Z,2.17
2022-09-06T13:18:49.262Z,2.42
2022-09-06T13:19:52.528Z,2.15
2022-09-06T13:20:59.631Z,2.35
2022-09-06T13:22:05.393Z,2.20
2022-09-06T13:23:10.460Z,2.50
2022-09-06T13:24:21.629Z,2.53
2022-09-06T13:25:26.766Z,2.88
2022-09-06T13:26:36.888Z,2.53
2022-09-06T13:27:46.566Z,2.72
2022-09-06T13:28:49.554Z,1.85
2022-09-06T13:29:56.326Z,2.40
2022-09-06T13:31:09.058Z,2.28
2022-09-06T13:32:14.504Z,2.30
2022-09-06T13:33:26.374Z,2.30
2022-09-06T13:34:30.781Z,2.03
2022-09-06T13:35:34.845Z,2.10
2022-09-06T13:36:37.793Z,2.20
2022-09-06T13:37:41.125Z,2.20
2022-09-06T13:38:45.968Z,2.17
2022-09-06T13:39:48.939Z,2.50
2022-09-06T13:42:27.333Z,2.35
2022-09-06T13:43:32.488Z,2.22
2022-09-06T13:44:36.897Z,2.53
2022-09-06T13:45:39.733Z,2.40
2022-09-06T13:46:42.804Z,2.35
2022-09-06T13:47:44.778Z,3.00
2022-09-06T13:48:49.180Z,2.10
2022-09-06T13:49:55.085Z,2.30
2022-09-06T13:50:57.263Z,2.60
2022-09-06T13:52:01.997Z,2.15
2022-09-06T13:53:03.990Z,2.22
2022-09-06T13:54:09.065Z,2.28
2022-09-06T13:55:15.301Z,2.08
2022-09-06T13:56:17.397Z,2.30
2022-09-06T13:57:24.472Z,1.90
2022-09-06T13:58:27.477Z,2.40
2022-09-06T13:59:31.611Z,2.17
2022-09-06T14:00:33.849Z,2.47
2022-09-06T14:01:37.279Z,2.20
2022-09-06T14:02:41.570Z,2.67
2022-09-06T14:03:43.596Z,2.70
2022-09-06T14:04:47.932Z,2.65
2022-09-06T14:05:49.888Z,2.70
2022-09-06T14:06:54.041Z,2.10
2022-09-06T14:07:56.177Z,2.22
2022-09-06T14:09:08.032Z,2.33
2022-09-06T14:10:12.351Z,2.35
2022-09-06T14:11:14.427Z,1.90
2022-09-06T14:12:17.808Z,1.75
2022-09-06T14:13:21.528Z,1.80
2022-09-06T14:14:24.778Z,2.47
2022-09-06T14:15:32.805Z,2.15
2022-09-06T14:16:36.242Z,1.95
2022-09-06T14:17:40.688Z,2.63
2022-09-06T14:18:43.190Z,2.20
2022-09-06T14:19:49.449Z,1.90
2022-09-06T14:20:53.258Z,2.00
2022-09-06T14:21:56.701Z,1.70
2022-09-06T14:22:58.896Z,1.70
2022-09-06T14:24:04.493Z,1.75
2022-09-06T14:25:17.103Z,1.90
2022-09-06T14:26:20.433Z,1.50
2022-09-06T14:27:24.061Z,2.65
2022-09-06T14:28:27.010Z,2.10
2022-09-06T14:29:31.412Z,2.28
2022-09-06T14:30:34.061Z,2.00
2022-09-06T14:31:37.168Z,2.28
2022-09-06T14:32:39.407Z,2.13
2022-09-06T14:33:42.800Z,2.22
2022-09-06T14:34:46.811Z,1.90
2022-09-06T14:35:50.418Z,2.17
2022-09-06T14:36:58.487Z,2.03
2022-09-06T14:38:00.724Z,1.50
2022-09-06T14:39:04.634Z,2.10
2022-09-06T14:40:08.974Z,2.20
2022-09-06T14:41:14.454Z,2.10
2022-09-06T14:42:16.759Z,2.35
2022-09-06T14:43:22.775Z,1.83
2022-09-06T14:44:25.150Z,1.98
2022-09-06T14:45:28.994Z,2.13
2022-09-06T14:46:31.240Z,1.90
2022-09-06T14:47:34.345Z,1.70
2022-09-06T14:48:41.521Z,2.03
2022-09-06T14:49:45.474Z,1.45
2022-09-06T14:50:52.357Z,2.53
2022-09-06T14:51:55.606Z,2.08
2022-09-06T14:52:58.117Z,1.95
2022-09-06T14:54:05.454Z,2.00
2022-09-06T14:55:08.350Z,1.70
2022-09-06T14:56:12.605Z,2.45
2022-09-06T14:57:14.657Z,2.33
2022-09-06T14:58:17.864Z,2.17
2022-09-06T14:59:19.938Z,2.00
2022-09-06T15:00:23.553Z,2.22
2022-09-06T15:01:28.547Z,2.03
2022-09-06T15:02:32.117Z,1.90
2022-09-06T15:03:34.589Z,2.58
2022-09-06T15:04:37.864Z,2.33
2022-09-06T15:05:39.927Z,2.22
2022-09-06T15:06:47.186Z,1.85
2022-09-06T15:07:49.618Z,2.05
2022-09-06T15:08:57.047Z,2.00
2022-09-06T15:10:01.139Z,1.95
2022-09-06T15:11:05.208Z,1.60
2022-09-06T15:12:08.329Z,1.90
2022-09-06T15:13:10.630Z,2.15
2022-09-06T15:14:16.277Z,2.13
2022-09-06T15:15:18.466Z,1.85
2022-09-06T15:16:21.506Z,2.05